createdAt,value
2018-09-06T00:01:09.108Z,817.57
2018-09-06T00:03:37.725Z,797.33
2018-09-06T00:06:06.424Z,803.87
2018-09-06T00:08:34.945Z,826.80
2018-09-06T00:11:03.476Z,800.37
2018-09-06T00:13:32.100Z,810.43
2018-09-06T00:16:00.600Z,804.90
2018-09-06T00:18:29.235Z,772.47
2018-09-06T00:20:57.916Z,756.20
2018-09-06T00:23:26.448Z,735.00
2018-09-06T00:25:55.100Z,718.40
2018-09-06T00:28:23.698Z,738.43
2018-09-06T00:30:52.352Z,719.33
2018-09-06T00:33:20.882Z,681.13
2018-09-06T00:35:49.440Z,666.27
2018-09-06T00:38:17.972Z,661.37
2018-09-06T00:40:46.487Z,637.50
2018-09-06T00:43:15.065Z,676.63
2018-09-06T00:45:43.633Z,680.70
2018-09-06T00:48:12.276Z,668.97
2018-09-06T00:50:41.075Z,649.70
2018-09-06T00:53:09.651Z,668.60
2018-09-06T00:55:38.207Z,639.63
2018-09-06T00:58:06.738Z,635.03
2018-09-06T01:00:35.339Z,630.10
2018-09-06T01:03:03.925Z,628.37
2018-09-06T01:05:32.582Z,622.97
2018-09-06T01:08:01.062Z,626.43
2018-09-06T01:10:29.631Z,616.23
2018-09-06T01:12:58.281Z,615.97
2018-09-06T01:15:26.790Z,649.53
2018-09-06T01:17:55.282Z,653.13
2018-09-06T01:20:23.846Z,667.80
2018-09-06T01:22:52.335Z,661.50
2018-09-06T01:25:20.969Z,678.77
2018-09-06T01:27:49.451Z,651.10
2018-09-06T01:30:18.332Z,660.93
2018-09-06T01:32:46.855Z,681.70
2018-09-06T01:35:15.599Z,680.73
2018-09-06T01:37:44.153Z,678.43
2018-09-06T01:40:12.710Z,684.97
2018-09-06T01:42:41.321Z,661.90
2018-09-06T01:45:09.842Z,685.73
2018-09-06T01:47:38.517Z,662.27
2018-09-06T01:50:06.965Z,653.67
2018-09-06T01:52:35.744Z,653.73
2018-09-06T01:55:04.375Z,668.20
2018-09-06T01:57:32.994Z,644.47
2018-09-06T02:00:01.704Z,679.53
2018-09-06T02:02:30.233Z,622.13
2018-09-06T02:04:58.733Z,625.90
2018-09-06T02:07:27.313Z,627.53
2018-09-06T02:09:55.777Z,637.10
2018-09-06T02:12:24.379Z,592.17
2018-09-06T02:14:53.001Z,504.97
2018-09-06T02:17:21.564Z,506.90
2018-09-06T02:19:50.331Z,481.23
2018-09-06T02:22:18.819Z,491.67
2018-09-06T02:24:47.652Z,481.40
2018-09-06T02:27:16.177Z,489.13
2018-09-06T02:29:44.743Z,458.97
2018-09-06T02:32:13.220Z,448.83
2018-09-06T02:34:41.768Z,399.37
2018-09-06T02:37:10.297Z,384.47
2018-09-06T02:39:38.983Z,356.87
2018-09-06T02:42:07.607Z,297.57
2018-09-06T02:44:36.124Z,310.23
2018-09-06T02:47:04.711Z,316.70
2018-09-06T02:49:38.472Z,364.50
2018-09-06T02:52:07.102Z,359.10
2018-09-06T02:54:35.653Z,347.70
2018-09-06T02:57:04.372Z,372.60
2018-09-06T02:59:32.885Z,336.90
2018-09-06T03:02:01.404Z,359.47
2018-09-06T03:04:29.952Z,330.37
2018-09-06T03:06:58.485Z,314.43
2018-09-06T03:09:27.083Z,305.53
2018-09-06T03:11:59.267Z,302.03
2018-09-06T03:14:27.806Z,294.50
2018-09-06T03:16:56.380Z,289.00
2018-09-06T03:19:24.934Z,283.27
2018-09-06T03:21:53.477Z,286.23
2018-09-06T03:24:22.007Z,294.53
2018-09-06T03:26:50.488Z,279.27
2018-09-06T03:29:19.035Z,279.87
2018-09-06T03:31:47.556Z,283.57
2018-09-06T03:34:16.060Z,274.57
2018-09-06T03:36:44.555Z,267.53
2018-09-06T03:39:13.059Z,242.53
2018-09-06T03:41:41.618Z,261.30
2018-09-06T03:44:10.296Z,236.87
2018-09-06T03:46:39.350Z,235.47
2018-09-06T03:49:07.937Z,229.63
2018-09-06T03:51:36.520Z,216.13
2018-09-06T03:54:05.019Z,212.57
2018-09-06T03:56:33.866Z,206.60
2018-09-06T03:59:02.576Z,199.53
2018-09-06T04:01:31.313Z,194.97
2018-09-06T04:03:59.996Z,180.37
2018-09-06T04:06:28.507Z,175.37
2018-09-06T04:08:57.196Z,175.20
2018-09-06T04:11:25.692Z,162.17
2018-09-06T04:13:54.238Z,176.67
2018-09-06T04:16:22.695Z,158.67
2018-09-06T04:18:51.270Z,122.37
2018-09-06T04:21:19.843Z,116.93
2018-09-06T04:23:48.517Z,117.13
2018-09-06T04:26:17.020Z,138.10
2018-09-06T04:28:45.476Z,132.27
2018-09-06T04:31:14.007Z,135.67
2018-09-06T04:33:42.572Z,131.53
2018-09-06T04:36:11.134Z,120.67
2018-09-06T04:38:39.998Z,118.67
2018-09-06T04:41:08.568Z,122.23
2018-09-06T04:43:37.158Z,121.07
2018-09-06T04:46:05.650Z,137.23
2018-09-06T04:48:34.219Z,123.80
2018-09-06T04:51:02.937Z,147.07
2018-09-06T04:53:31.522Z,155.30
2018-09-06T04:56:00.484Z,170.50
2018-09-06T04:58:29.109Z,184.27
2018-09-06T05:00:57.544Z,136.00
2018-09-06T05:03:26.041Z,133.60
2018-09-06T05:05:54.597Z,108.90
2018-09-06T05:08:23.066Z,104.97
2018-09-06T05:10:51.669Z,101.53
2018-09-06T05:13:20.358Z,105.10
2018-09-06T05:15:49.086Z,104.33
2018-09-06T05:18:17.732Z,146.73
2018-09-06T05:20:46.454Z,155.57
2018-09-06T05:23:15.101Z,202.97
2018-09-06T05:25:46.765Z,224.00
2018-09-06T05:28:15.378Z,226.93
2018-09-06T05:30:43.887Z,267.53
2018-09-06T05:33:12.403Z,278.20
2018-09-06T05:35:40.917Z,257.10
2018-09-06T05:38:09.428Z,232.47
2018-09-06T05:40:38.081Z,161.43
2018-09-06T05:43:06.618Z,137.37
2018-09-06T05:45:35.213Z,106.07
2018-09-06T05:48:03.681Z,93.43
2018-09-06T05:50:32.512Z,118.83
2018-09-06T05:53:02.044Z,154.17
2018-09-06T05:55:31.021Z,186.07
2018-09-06T05:57:59.697Z,185.33
2018-09-06T06:00:47.742Z,212.10
2018-09-06T06:03:16.394Z,237.40
2018-09-06T06:05:44.937Z,242.10
2018-09-06T06:08:24.754Z,273.73
2018-09-06T06:10:53.257Z,311.00
2018-09-06T06:13:21.820Z,279.37
2018-09-06T06:15:50.372Z,352.10
2018-09-06T06:18:18.903Z,326.93
2018-09-06T06:20:47.444Z,329.03
2018-09-06T06:23:15.938Z,355.30
2018-09-06T06:25:44.492Z,414.23
2018-09-06T06:28:13.092Z,457.50
2018-09-06T06:30:41.675Z,456.20
2018-09-06T06:33:10.194Z,502.80
2018-09-06T06:35:38.695Z,522.63
2018-09-06T06:38:07.283Z,563.67
2018-09-06T06:40:36.009Z,585.60
2018-09-06T06:43:04.603Z,577.93
2018-09-06T06:45:33.240Z,609.90
2018-09-06T06:48:01.790Z,623.73
2018-09-06T06:50:30.497Z,616.50
2018-09-06T06:52:58.905Z,624.90
2018-09-06T06:55:27.477Z,626.20
2018-09-06T06:57:55.955Z,651.30
2018-09-06T07:00:24.662Z,638.47
2018-09-06T07:02:53.567Z,633.50
2018-09-06T07:05:22.786Z,646.13
2018-09-06T07:07:51.881Z,654.93
2018-09-06T07:10:20.355Z,608.10
2018-09-06T07:12:48.852Z,621.03
2018-09-06T07:15:17.631Z,615.43
2018-09-06T07:17:46.726Z,594.40
2018-09-06T07:20:15.275Z,569.40
2018-09-06T07:22:43.798Z,577.27
2018-09-06T07:25:12.477Z,502.20
2018-09-06T07:27:41.162Z,534.33
2018-09-06T07:30:09.878Z,570.23
2018-09-06T07:32:38.381Z,582.53
2018-09-06T07:35:07.215Z,609.27
2018-09-06T07:37:35.726Z,641.20
2018-09-06T07:40:04.470Z,647.50
2018-09-06T07:42:33.158Z,653.93
2018-09-06T07:45:02.005Z,705.20
2018-09-06T07:47:30.591Z,784.53
2018-09-06T07:49:59.322Z,790.37
2018-09-06T07:52:27.929Z,870.40
2018-09-06T07:54:56.457Z,904.13
2018-09-06T07:57:25.207Z,819.03
2018-09-06T07:59:53.900Z,732.63
2018-09-06T08:02:22.419Z,715.43
2018-09-06T08:04:51.673Z,593.13
2018-09-06T08:07:20.129Z,578.20
2018-09-06T08:09:48.800Z,607.33
2018-09-06T08:12:17.673Z,614.83
2018-09-06T08:14:46.380Z,584.57
2018-09-06T08:17:14.936Z,616.20
2018-09-06T08:19:43.796Z,591.30
2018-09-06T08:22:12.346Z,612.67
2018-09-06T08:24:40.911Z,634.10
2018-09-06T08:27:09.501Z,601.73
2018-09-06T08:29:38.053Z,676.93
2018-09-06T08:32:06.737Z,714.33
2018-09-06T08:34:35.251Z,683.20
2018-09-06T08:37:03.748Z,676.20
2018-09-06T08:39:32.280Z,695.23
2018-09-06T08:42:00.781Z,621.30
2018-09-06T08:44:29.292Z,604.90
2018-09-06T08:46:57.837Z,588.23
2018-09-06T08:49:26.298Z,470.93
2018-09-06T08:51:54.843Z,480.23
2018-09-06T08:54:23.373Z,481.73
2018-09-06T08:56:51.986Z,535.00
2018-09-06T08:59:20.696Z,517.13
2018-09-06T09:01:49.189Z,504.63
2018-09-06T09:04:17.724Z,520.17
2018-09-06T09:06:46.296Z,633.40
2018-09-06T09:09:15.639Z,530.97
2018-09-06T09:11:44.211Z,528.87
2018-09-06T09:14:12.712Z,554.07
2018-09-06T09:16:41.266Z,772.17
2018-09-06T09:19:09.799Z,833.43
2018-09-06T09:21:38.405Z,875.97
2018-09-06T09:24:07.252Z,993.90
2018-09-06T09:26:36.176Z,1002.90
2018-09-06T09:29:04.695Z,1000.63
2018-09-06T09:31:33.230Z,1013.43
2018-09-06T09:34:01.759Z,1009.10
2018-09-06T09:36:30.291Z,1013.93
2018-09-06T09:38:58.874Z,1005.03
2018-09-06T09:41:27.400Z,1004.57
2018-09-06T09:43:55.932Z,1009.87
2018-09-06T09:48:52.428Z,1017.93
2018-09-06T09:51:20.923Z,1010.40
2018-09-06T09:53:49.436Z,1014.17
2018-09-06T09:56:17.980Z,1000.47
2018-09-06T09:58:46.500Z,1045.60
2018-09-06T10:01:15.107Z,1075.83
2018-09-06T10:03:49.104Z,1043.30
2018-09-06T10:06:21.913Z,1096.23
2018-09-06T10:08:55.952Z,1143.03
2018-09-06T10:11:24.902Z,1184.93
2018-09-06T10:13:53.411Z,1171.60
2018-09-06T10:16:22.017Z,1149.87
2018-09-06T10:18:50.590Z,1172.13
2018-09-06T10:21:19.605Z,1171.20
2018-09-06T10:23:48.279Z,1168.07
2018-09-06T10:26:16.752Z,1156.53
2018-09-06T10:28:45.365Z,1164.10
2018-09-06T10:31:13.993Z,1160.43
2018-09-06T10:33:42.726Z,1147.30
2018-09-06T10:36:11.340Z,1137.27
2018-09-06T10:38:39.904Z,1136.97
2018-09-06T10:41:08.469Z,1141.20
2018-09-06T10:43:37.860Z,1117.40
2018-09-06T10:46:06.629Z,1119.67
2018-09-06T10:48:37.151Z,1091.43
2018-09-06T10:51:05.789Z,1067.03
2018-09-06T10:53:34.419Z,1094.17
2018-09-06T10:56:03.092Z,1108.73
2018-09-06T10:58:31.768Z,1127.63
2018-09-06T11:01:05.749Z,1108.77
2018-09-06T11:03:34.391Z,1058.03
2018-09-06T11:06:02.998Z,1047.23
2018-09-06T11:08:31.770Z,1027.87
2018-09-06T11:11:00.458Z,1057.53
2018-09-06T11:13:29.186Z,1063.90
2018-09-06T11:15:57.885Z,1027.80
2018-09-06T11:18:26.479Z,1028.77
2018-09-06T11:20:55.114Z,973.60
2018-09-06T11:23:23.688Z,905.93
2018-09-06T11:25:52.253Z,936.50
2018-09-06T11:28:21.106Z,874.77
2018-09-06T11:30:49.658Z,890.93
2018-09-06T11:33:18.277Z,827.90
2018-09-06T11:35:46.840Z,834.03
2018-09-06T11:38:15.413Z,846.53
2018-09-06T11:40:44.846Z,731.93
2018-09-06T11:43:13.436Z,666.17
2018-09-06T11:45:42.009Z,669.37
2018-09-06T11:48:10.672Z,707.30
2018-09-06T11:50:39.411Z,694.17
2018-09-06T11:53:07.969Z,646.13
2018-09-06T11:55:36.461Z,661.40
2018-09-06T11:58:05.037Z,727.87
2018-09-06T12:00:35.377Z,757.53
2018-09-06T12:03:03.993Z,808.33
2018-09-06T12:05:32.603Z,868.77
2018-09-06T12:08:01.182Z,863.03
2018-09-06T12:10:29.893Z,819.80
2018-09-06T12:12:58.780Z,857.47
2018-09-06T12:15:27.325Z,835.77
2018-09-06T12:17:55.901Z,862.43
2018-09-06T12:20:24.586Z,894.27
2018-09-06T12:22:53.542Z,866.77
2018-09-06T12:25:22.213Z,874.40
2018-09-06T12:27:50.898Z,886.40
2018-09-06T12:30:22.855Z,889.53
2018-09-06T12:32:53.414Z,911.70
2018-09-06T12:35:25.114Z,861.40
2018-09-06T12:38:00.599Z,856.97
2018-09-06T12:40:32.608Z,895.23
2018-09-06T12:43:01.781Z,867.63
2018-09-06T12:45:33.499Z,913.07
2018-09-06T12:48:03.633Z,914.83
2018-09-06T12:50:35.871Z,895.90
2018-09-06T12:53:06.264Z,845.70
2018-09-06T12:55:36.204Z,857.47
2018-09-06T12:58:06.426Z,770.03
2018-09-06T13:00:37.755Z,747.30
2018-09-06T13:03:10.007Z,816.87
2018-09-06T13:05:42.965Z,767.00
2018-09-06T13:08:14.950Z,739.57
2018-09-06T13:10:49.340Z,752.13
2018-09-06T13:13:25.944Z,842.77
2018-09-06T13:16:03.459Z,867.33
2018-09-06T13:18:38.273Z,863.53
2018-09-06T13:21:12.495Z,832.03
2018-09-06T13:23:46.434Z,804.33
2018-09-06T13:26:28.023Z,740.77
2018-09-06T13:28:59.792Z,798.37
2018-09-06T13:31:35.985Z,820.10
2018-09-06T13:34:10.335Z,815.70
2018-09-06T13:36:45.504Z,817.00
2018-09-06T13:39:18.016Z,790.97
2018-09-06T13:41:48.913Z,812.33
2018-09-06T13:44:21.453Z,667.13
2018-09-06T13:46:52.181Z,559.03
2018-09-06T13:49:28.826Z,616.20
2018-09-06T13:52:01.426Z,577.77
2018-09-06T13:54:34.109Z,651.73
2018-09-06T13:57:05.410Z,635.77
2018-09-06T13:59:38.397Z,651.73
2018-09-06T14:02:10.467Z,664.17
2018-09-06T14:04:40.961Z,660.20
2018-09-06T14:07:11.580Z,640.23
2018-09-06T14:09:43.250Z,699.17
2018-09-06T14:12:14.759Z,710.63
2018-09-06T14:14:46.958Z,726.30
2018-09-06T14:17:19.279Z,693.03
2018-09-06T14:19:50.876Z,715.53
2018-09-06T14:22:26.912Z,719.73
2018-09-06T14:24:58.857Z,745.13
2018-09-06T14:27:31.502Z,748.17
2018-09-06T14:30:06.418Z,759.03
2018-09-06T14:32:37.872Z,748.77
2018-09-06T14:35:14.035Z,763.40
2018-09-06T14:37:47.067Z,800.63
2018-09-06T14:40:19.747Z,842.67
2018-09-06T14:42:51.508Z,861.60
2018-09-06T14:45:23.087Z,906.13
2018-09-06T14:47:55.863Z,915.87
2018-09-06T14:50:27.183Z,920.70
2018-09-06T14:53:02.227Z,911.63
2018-09-06T14:55:30.813Z,921.43
2018-09-06T14:58:03.825Z,929.73
2018-09-06T15:00:40.215Z,925.47
2018-09-06T15:03:12.203Z,898.43
2018-09-06T15:05:40.841Z,895.57
2018-09-06T15:08:09.413Z,910.30
2018-09-06T15:10:38.037Z,911.80
2018-09-06T15:13:06.929Z,921.63
2018-09-06T15:15:35.545Z,914.77
2018-09-06T15:18:04.225Z,940.97
2018-09-06T15:20:32.890Z,927.83
2018-09-06T15:23:02.111Z,926.13
2018-09-06T15:25:30.734Z,927.80
2018-09-06T15:27:59.388Z,914.20
2018-09-06T15:30:27.975Z,884.47
2018-09-06T15:32:56.591Z,907.97
2018-09-06T15:35:25.265Z,898.03
2018-09-06T15:37:53.846Z,899.07
2018-09-06T15:40:22.380Z,901.93
2018-09-06T15:42:50.964Z,890.77
2018-09-06T15:45:19.584Z,899.97
2018-09-06T15:47:48.468Z,915.57
2018-09-06T15:50:17.001Z,909.50
2018-09-06T15:52:45.677Z,899.23
2018-09-06T15:55:14.221Z,901.70
2018-09-06T15:57:42.831Z,913.47
2018-09-06T16:00:11.386Z,919.37
2018-09-06T16:02:40.026Z,908.97
2018-09-06T16:05:08.606Z,884.40
2018-09-06T16:07:37.179Z,909.23
2018-09-06T16:10:05.802Z,912.47
2018-09-06T16:12:34.421Z,864.80
2018-09-06T16:15:03.001Z,871.93
2018-09-06T16:17:31.577Z,857.97
2018-09-06T16:20:00.171Z,797.23
2018-09-06T16:22:28.959Z,742.27
2018-09-06T16:25:00.409Z,762.93
2018-09-06T16:27:29.340Z,783.57
2018-09-06T16:29:57.986Z,776.53
2018-09-06T16:32:26.611Z,815.37
2018-09-06T16:34:55.256Z,819.50
2018-09-06T16:37:23.881Z,827.30
2018-09-06T16:39:52.423Z,831.23
2018-09-06T16:42:20.990Z,820.97
2018-09-06T16:44:49.550Z,829.70
2018-09-06T16:47:18.190Z,827.77
2018-09-06T16:49:46.721Z,840.53
2018-09-06T16:52:15.307Z,844.43
2018-09-06T16:54:43.869Z,847.03
2018-09-06T16:57:12.415Z,850.47
2018-09-06T16:59:40.998Z,848.93
2018-09-06T17:02:09.559Z,859.33
2018-09-06T17:04:38.186Z,910.70
2018-09-06T17:07:06.756Z,915.37
2018-09-06T17:09:35.263Z,897.67
2018-09-06T17:12:03.787Z,888.30
2018-09-06T17:14:32.461Z,891.77
2018-09-06T17:17:00.973Z,917.27
2018-09-06T17:19:29.781Z,907.67
2018-09-06T17:21:58.266Z,896.77
2018-09-06T17:24:26.829Z,887.60
2018-09-06T17:26:55.392Z,907.77
2018-09-06T17:29:24.048Z,883.50
2018-09-06T17:31:52.554Z,913.13
2018-09-06T17:34:21.082Z,904.47
2018-09-06T17:36:49.636Z,908.37
2018-09-06T17:39:18.240Z,897.73
2018-09-06T17:41:47.767Z,913.80
2018-09-06T17:44:16.330Z,896.07
2018-09-06T17:46:44.929Z,915.00
2018-09-06T17:49:13.696Z,943.30
2018-09-06T17:51:42.237Z,916.70
2018-09-06T17:54:10.838Z,918.20
2018-09-06T17:56:39.353Z,943.17
2018-09-06T17:59:07.965Z,928.03
2018-09-06T18:01:38.906Z,926.13
2018-09-06T18:04:07.863Z,895.13
2018-09-06T18:06:36.429Z,909.73
2018-09-06T18:09:10.193Z,894.80
2018-09-06T18:11:39.202Z,893.30
2018-09-06T18:14:07.859Z,884.87
2018-09-06T18:16:36.470Z,905.53
2018-09-06T18:19:06.027Z,894.80
2018-09-06T18:21:35.861Z,844.90
2018-09-06T18:24:04.553Z,871.13
2018-09-06T18:26:33.111Z,927.83
2018-09-06T18:29:01.717Z,859.83
2018-09-06T18:31:30.342Z,805.97
2018-09-06T18:33:58.977Z,736.53
2018-09-06T18:36:27.548Z,709.47
2018-09-06T18:38:56.204Z,687.77
2018-09-06T18:41:24.793Z,680.00
2018-09-06T18:43:53.390Z,667.67
2018-09-06T18:46:21.981Z,687.60
2018-09-06T18:48:50.581Z,689.87
2018-09-06T18:51:19.179Z,700.33
2018-09-06T18:53:47.801Z,740.97
2018-09-06T18:56:16.387Z,746.90
2018-09-06T18:58:45.033Z,779.47
2018-09-06T19:01:13.587Z,798.87
2018-09-06T19:03:42.184Z,829.80
2018-09-06T19:06:10.729Z,846.67
2018-09-06T19:08:39.382Z,848.97
2018-09-06T19:11:07.955Z,872.30
2018-09-06T19:13:36.561Z,891.97
2018-09-06T19:16:05.185Z,898.90
2018-09-06T19:18:33.821Z,910.13
2018-09-06T19:21:02.359Z,899.43
2018-09-06T19:23:30.974Z,882.83
2018-09-06T19:25:59.608Z,854.53
2018-09-06T19:28:28.192Z,861.90
2018-09-06T19:30:56.779Z,855.07
2018-09-06T19:33:25.310Z,847.67
2018-09-06T19:35:54.657Z,809.57
2018-09-06T19:38:23.191Z,796.23
2018-09-06T19:40:51.823Z,768.87
2018-09-06T19:43:20.427Z,746.17
2018-09-06T19:45:49.001Z,737.20
2018-09-06T19:48:17.660Z,724.87
2018-09-06T19:50:46.237Z,693.07
2018-09-06T19:53:14.828Z,719.83
2018-09-06T19:55:43.373Z,706.93
2018-09-06T19:58:11.934Z,673.07
2018-09-06T20:00:40.525Z,657.50
2018-09-06T20:03:09.101Z,654.97
2018-09-06T20:05:37.666Z,671.77
2018-09-06T20:08:06.289Z,661.07
2018-09-06T20:10:34.941Z,649.13
2018-09-06T20:13:03.511Z,642.73
2018-09-06T20:15:32.097Z,579.13
2018-09-06T20:18:00.626Z,511.73
2018-09-06T20:20:29.280Z,494.03
2018-09-06T20:22:57.859Z,466.80
2018-09-06T20:25:26.457Z,427.23
2018-09-06T20:27:55.099Z,415.13
2018-09-06T20:30:23.876Z,410.97
2018-09-06T20:32:52.430Z,439.20
2018-09-06T20:35:20.973Z,412.83
2018-09-06T20:37:49.542Z,422.53
2018-09-06T20:40:18.085Z,468.60
2018-09-06T20:42:46.661Z,476.47
2018-09-06T20:45:15.186Z,445.73
2018-09-06T20:47:43.777Z,457.17
2018-09-06T20:50:12.290Z,434.53
2018-09-06T20:52:40.863Z,465.10
2018-09-06T20:55:09.417Z,502.10
2018-09-06T20:57:37.952Z,524.57
2018-09-06T21:00:06.500Z,539.93
2018-09-06T21:02:40.117Z,518.07
2018-09-06T21:05:12.522Z,517.43
2018-09-06T21:07:44.116Z,513.90
2018-09-06T21:10:12.678Z,488.93
2018-09-06T21:12:42.877Z,471.60
2018-09-06T21:15:12.077Z,469.37
2018-09-06T21:17:40.672Z,493.70
2018-09-06T21:20:09.384Z,519.00
2018-09-06T21:22:38.655Z,557.70
2018-09-06T21:25:07.397Z,549.77
2018-09-06T21:27:36.733Z,560.03
2018-09-06T21:30:07.424Z,562.17
2018-09-06T21:32:37.939Z,598.23
2018-09-06T21:35:07.604Z,602.37
2018-09-06T21:37:36.493Z,567.87
2018-09-06T21:40:05.790Z,557.47
2018-09-06T21:42:34.443Z,565.03
2018-09-06T21:45:03.319Z,556.97
2018-09-06T21:47:33.480Z,563.67
2018-09-06T21:50:02.240Z,613.87
2018-09-06T21:52:30.832Z,587.83
2018-09-06T21:54:59.391Z,558.97
2018-09-06T21:57:28.446Z,559.17
2018-09-06T21:59:56.962Z,650.83
2018-09-06T22:02:30.861Z,686.47
2018-09-06T22:04:59.399Z,744.57
2018-09-06T22:07:28.278Z,785.43
2018-09-06T22:09:57.455Z,831.13
2018-09-06T22:12:26.016Z,920.83
2018-09-06T22:14:54.723Z,961.90
2018-09-06T22:17:23.373Z,967.50
2018-09-06T22:19:52.040Z,941.53
2018-09-06T22:22:20.584Z,867.93
2018-09-06T22:24:49.406Z,914.47
2018-09-06T22:27:17.984Z,816.83
2018-09-06T22:29:46.809Z,969.07
2018-09-06T22:32:15.380Z,875.63
2018-09-06T22:34:44.746Z,897.87
2018-09-06T22:37:13.279Z,934.77
2018-09-06T22:39:41.938Z,921.90
2018-09-06T22:42:10.493Z,905.70
2018-09-06T22:44:39.190Z,924.17
2018-09-06T22:47:08.045Z,923.40
2018-09-06T22:49:36.634Z,927.07
2018-09-06T22:52:05.565Z,924.17
2018-09-06T22:54:34.197Z,940.57
2018-09-06T22:57:02.933Z,943.83
2018-09-06T22:59:31.526Z,954.90
2018-09-06T23:02:00.111Z,948.33
2018-09-06T23:04:28.732Z,931.00
2018-09-06T23:06:57.276Z,941.20
2018-09-06T23:09:25.941Z,948.20
2018-09-06T23:11:54.546Z,945.10
2018-09-06T23:14:23.100Z,827.47
2018-09-06T23:16:52.227Z,851.97
2018-09-06T23:19:20.881Z,828.10
2018-09-06T23:21:49.393Z,960.33
2018-09-06T23:24:17.973Z,997.03
2018-09-06T23:26:46.477Z,877.23
2018-09-06T23:29:15.070Z,813.20
2018-09-06T23:31:43.648Z,794.80
2018-09-06T23:34:12.202Z,757.20
2018-09-06T23:36:40.754Z,705.80
2018-09-06T23:39:09.373Z,697.93
2018-09-06T23:41:37.969Z,693.27
2018-09-06T23:44:06.558Z,691.00
2018-09-06T23:46:35.169Z,681.17
2018-09-06T23:49:03.691Z,723.37
2018-09-06T23:51:32.285Z,741.40
2018-09-06T23:54:00.816Z,745.97
2018-09-06T23:56:29.396Z,756.17
2018-09-06T23:58:57.985Z,760.70
